sensor_id;sensor_type;location;lat;lon;timestamp;P1;durP1;ratioP1;P2;durP2;ratioP2
44102;SDS011;29769;42.178;24.742;2023-04-25T00:03:26;2.40;;;2.20;;
44102;SDS011;29769;42.178;24.742;2023-04-25T00:06:11;3.42;;;2.38;;
44102;SDS011;29769;42.178;24.742;2023-04-25T00:08:56;5.68;;;2.58;;
44102;SDS011;29769;42.178;24.742;2023-04-25T00:11:41;3.35;;;2.67;;
44102;SDS011;29769;42.178;24.742;2023-04-25T00:14:26;4.15;;;2.50;;
44102;SDS011;29769;42.178;24.742;2023-04-25T00:17:12;2.67;;;2.47;;
44102;SDS011;29769;42.178;24.742;2023-04-25T00:22:42;2.38;;;2.22;;
44102;SDS011;29769;42.178;24.742;2023-04-25T00:25:27;2.67;;;2.28;;
44102;SDS011;29769;42.178;24.742;2023-04-25T00:28:12;3.03;;;2.20;;
44102;SDS011;29769;42.178;24.742;2023-04-25T00:30:57;3.85;;;2.65;;
44102;SDS011;29769;42.178;24.742;2023-04-25T00:33:42;2.88;;;2.47;;
44102;SDS011;29769;42.178;24.742;2023-04-25T00:39:12;8.18;;;2.90;;
44102;SDS011;29769;42.178;24.742;2023-04-25T00:44:42;4.07;;;3.25;;
44102;SDS011;29769;42.178;24.742;2023-04-25T00:47:28;3.03;;;2.70;;
44102;SDS011;29769;42.178;24.742;2023-04-25T00:52:57;9.20;;;3.10;;
44102;SDS011;29769;42.178;24.742;2023-04-25T00:58:27;3.50;;;3.20;;
44102;SDS011;29769;42.178;24.742;2023-04-25T01:03:58;6.85;;;3.70;;
44102;SDS011;29769;42.178;24.742;2023-04-25T01:06:43;7.60;;;3.92;;
44102;SDS011;29769;42.178;24.742;2023-04-25T01:09:29;5.38;;;3.40;;
44102;SDS011;29769;42.178;24.742;2023-04-25T01:12:15;6.18;;;3.78;;
44102;SDS011;29769;42.178;24.742;2023-04-25T01:17:45;6.85;;;3.88;;
44102;SDS011;29769;42.178;24.742;2023-04-25T01:20:30;8.25;;;3.58;;
44102;SDS011;29769;42.178;24.742;2023-04-25T01:23:17;4.10;;;3.70;;
44102;SDS011;29769;42.178;24.742;2023-04-25T01:26:03;10.63;;;3.85;;
44102;SDS011;29769;42.178;24.742;2023-04-25T01:31:33;5.10;;;4.28;;
44102;SDS011;29769;42.178;24.742;2023-04-25T01:34:19;7.38;;;4.43;;
44102;SDS011;29769;42.178;24.742;2023-04-25T01:37:04;5.43;;;4.40;;
44102;SDS011;29769;42.178;24.742;2023-04-25T01:39:49;5.38;;;4.82;;
44102;SDS011;29769;42.178;24.742;2023-04-25T01:42:34;5.72;;;4.47;;
44102;SDS011;29769;42.178;24.742;2023-04-25T01:45:21;6.63;;;4.07;;
44102;SDS011;29769;42.178;24.742;2023-04-25T01:48:10;5.10;;;4.60;;
44102;SDS011;29769;42.178;24.742;2023-04-25T01:50:56;5.55;;;4.30;;
44102;SDS011;29769;42.178;24.742;2023-04-25T01:56:30;4.85;;;4.45;;
44102;SDS011;29769;42.178;24.742;2023-04-25T01:59:15;4.70;;;4.30;;
44102;SDS011;29769;42.178;24.742;2023-04-25T02:02:18;10.27;;;5.60;;
44102;SDS011;29769;42.178;24.742;2023-04-25T02:05:03;5.80;;;4.80;;
44102;SDS011;29769;42.178;24.742;2023-04-25T02:07:50;7.47;;;5.80;;
44102;SDS011;29769;42.178;24.742;2023-04-25T02:10:35;6.28;;;5.68;;
44102;SDS011;29769;42.178;24.742;2023-04-25T02:13:37;6.88;;;5.70;;
44102;SDS011;29769;42.178;24.742;2023-04-25T02:16:32;6.97;;;5.88;;
44102;SDS011;29769;42.178;24.742;2023-04-25T02:19:19;8.93;;;6.50;;
44102;SDS011;29769;42.178;24.742;2023-04-25T02:22:05;9.48;;;7.55;;
44102;SDS011;29769;42.178;24.742;2023-04-25T02:24:50;12.13;;;8.02;;
44102;SDS011;29769;42.178;24.742;2023-04-25T02:27:35;10.48;;;7.63;;
44102;SDS011;29769;42.178;24.742;2023-04-25T02:33:05;13.32;;;9.40;;
44102;SDS011;29769;42.178;24.742;2023-04-25T02:35:50;14.40;;;9.73;;
44102;SDS011;29769;42.178;24.742;2023-04-25T02:38:34;12.50;;;9.43;;
44102;SDS011;29769;42.178;24.742;2023-04-25T02:41:21;13.15;;;9.43;;
44102;SDS011;29769;42.178;24.742;2023-04-25T02:44:06;12.88;;;9.63;;
44102;SDS011;29769;42.178;24.742;2023-04-25T02:49:35;17.90;;;10.32;;
44102;SDS011;29769;42.178;24.742;2023-04-25T02:52:20;14.07;;;9.98;;
44102;SDS011;29769;42.178;24.742;2023-04-25T02:55:13;14.75;;;11.00;;
44102;SDS011;29769;42.178;24.742;2023-04-25T02:57:58;13.40;;;10.93;;
44102;SDS011;29769;42.178;24.742;2023-04-25T03:00:55;14.52;;;10.60;;
44102;SDS011;29769;42.178;24.742;2023-04-25T03:06:24;20.00;;;12.57;;
44102;SDS011;29769;42.178;24.742;2023-04-25T03:09:10;24.00;;;13.05;;
44102;SDS011;29769;42.178;24.742;2023-04-25T03:11:55;21.48;;;12.73;;
44102;SDS011;29769;42.178;24.742;2023-04-25T03:14:40;17.77;;;12.55;;
44102;SDS011;29769;42.178;24.742;2023-04-25T03:17:24;22.77;;;13.57;;
44102;SDS011;29769;42.178;24.742;2023-04-25T03:20:10;21.02;;;13.40;;
44102;SDS011;29769;42.178;24.742;2023-04-25T03:25:39;20.98;;;13.15;;
44102;SDS011;29769;42.178;24.742;2023-04-25T03:28:25;22.00;;;12.95;;
44102;SDS011;29769;42.178;24.742;2023-04-25T03:31:09;18.10;;;12.18;;
44102;SDS011;29769;42.178;24.742;2023-04-25T03:33:55;19.48;;;11.82;;
44102;SDS011;29769;42.178;24.742;2023-04-25T03:36:41;19.30;;;12.45;;
44102;SDS011;29769;42.178;24.742;2023-04-25T03:39:28;16.63;;;11.70;;
44102;SDS011;29769;42.178;24.742;2023-04-25T03:42:14;19.33;;;11.75;;
44102;SDS011;29769;42.178;24.742;2023-04-25T03:45:01;19.38;;;11.15;;
44102;SDS011;29769;42.178;24.742;2023-04-25T03:47:47;15.93;;;11.80;;
44102;SDS011;29769;42.178;24.742;2023-04-25T03:53:17;16.70;;;10.93;;
44102;SDS011;29769;42.178;24.742;2023-04-25T03:56:34;19.23;;;12.25;;
44102;SDS011;29769;42.178;24.742;2023-04-25T03:59:28;14.32;;;9.77;;
44102;SDS011;29769;42.178;24.742;2023-04-25T04:02:13;26.83;;;10.98;;
44102;SDS011;29769;42.178;24.742;2023-04-25T04:04:59;17.17;;;10.63;;
44102;SDS011;29769;42.178;24.742;2023-04-25T04:07:45;21.42;;;9.77;;
44102;SDS011;29769;42.178;24.742;2023-04-25T04:10:31;13.25;;;9.23;;
44102;SDS011;29769;42.178;24.742;2023-04-25T04:16:00;16.92;;;10.35;;
44102;SDS011;29769;42.178;24.742;2023-04-25T04:21:30;19.77;;;9.87;;
44102;SDS011;29769;42.178;24.742;2023-04-25T04:24:16;47.80;;;11.98;;
44102;SDS011;29769;42.178;24.742;2023-04-25T04:27:08;37.25;;;10.43;;
44102;SDS011;29769;42.178;24.742;2023-04-25T04:30:07;31.92;;;9.57;;
44102;SDS011;29769;42.178;24.742;2023-04-25T04:32:57;21.73;;;7.97;;
44102;SDS011;29769;42.178;24.742;2023-04-25T04:38:28;32.70;;;9.60;;
44102;SDS011;29769;42.178;24.742;2023-04-25T04:41:17;36.53;;;9.35;;
44102;SDS011;29769;42.178;24.742;2023-04-25T04:44:12;38.08;;;9.95;;
44102;SDS011;29769;42.178;24.742;2023-04-25T04:47:24;13.05;;;8.15;;
44102;SDS011;29769;42.178;24.742;2023-04-25T04:50:45;18.75;;;8.80;;
44102;SDS011;29769;42.178;24.742;2023-04-25T04:53:49;10.02;;;6.55;;
44102;SDS011;29769;42.178;24.742;2023-04-25T04:56:34;12.73;;;7.68;;
44102;SDS011;29769;42.178;24.742;2023-04-25T04:59:33;11.48;;;7.63;;
44102;SDS011;29769;42.178;24.742;2023-04-25T05:02:25;11.57;;;8.43;;
44102;SDS011;29769;42.178;24.742;2023-04-25T05:05:10;16.55;;;7.88;;
44102;SDS011;29769;42.178;24.742;2023-04-25T05:08:13;14.10;;;7.80;;
44102;SDS011;29769;42.178;24.742;2023-04-25T05:11:21;12.85;;;7.82;;
44102;SDS011;29769;42.178;24.742;2023-04-25T05:14:26;8.38;;;6.95;;
44102;SDS011;29769;42.178;24.742;2023-04-25T05:17:34;25.52;;;8.93;;
44102;SDS011;29769;42.178;24.742;2023-04-25T05:20:51;42.95;;;10.63;;
44102;SDS011;29769;42.178;24.742;2023-04-25T05:24:14;26.42;;;8.50;;
44102;SDS011;29769;42.178;24.742;2023-04-25T05:33:27;41.80;;;7.03;;
44102;SDS011;29769;42.178;24.742;2023-04-25T05:38:57;10.23;;;5.30;;
44102;SDS011;29769;42.178;24.742;2023-04-25T05:42:20;35.35;;;9.20;;
44102;SDS011;29769;42.178;24.742;2023-04-25T05:45:18;21.60;;;8.73;;
44102;SDS011;29769;42.178;24.742;2023-04-25T05:48:13;21.13;;;8.38;;
44102;SDS011;29769;42.178;24.742;2023-04-25T05:51:13;10.73;;;7.50;;
44102;SDS011;29769;42.178;24.742;2023-04-25T05:54:30;58.08;;;10.90;;
44102;SDS011;29769;42.178;24.742;2023-04-25T05:57:25;16.27;;;8.90;;
44102;SDS011;29769;42.178;24.742;2023-04-25T06:00:12;35.28;;;8.93;;
44102;SDS011;29769;42.178;24.742;2023-04-25T06:03:00;32.85;;;8.25;;
44102;SDS011;29769;42.178;24.742;2023-04-25T06:05:46;20.35;;;7.45;;
44102;SDS011;29769;42.178;24.742;2023-04-25T06:08:31;13.35;;;6.65;;
44102;SDS011;29769;42.178;24.742;2023-04-25T06:11:16;10.20;;;6.68;;
44102;SDS011;29769;42.178;24.742;2023-04-25T06:14:01;16.50;;;6.20;;
44102;SDS011;29769;42.178;24.742;2023-04-25T06:19:31;5.28;;;4.65;;
44102;SDS011;29769;42.178;24.742;2023-04-25T06:25:00;22.65;;;5.75;;
44102;SDS011;29769;42.178;24.742;2023-04-25T06:27:46;25.98;;;5.13;;
44102;SDS011;29769;42.178;24.742;2023-04-25T06:30:31;10.40;;;4.05;;
44102;SDS011;29769;42.178;24.742;2023-04-25T06:33:22;6.70;;;3.65;;
44102;SDS011;29769;42.178;24.742;2023-04-25T06:36:09;6.78;;;3.30;;
44102;SDS011;29769;42.178;24.742;2023-04-25T06:38:55;6.07;;;2.78;;
44102;SDS011;29769;42.178;24.742;2023-04-25T06:41:40;10.68;;;3.00;;
44102;SDS011;29769;42.178;24.742;2023-04-25T06:44:32;4.43;;;3.53;;
44102;SDS011;29769;42.178;24.742;2023-04-25T06:47:17;9.27;;;3.95;;
44102;SDS011;29769;42.178;24.742;2023-04-25T06:50:02;16.38;;;4.43;;
44102;SDS011;29769;42.178;24.742;2023-04-25T06:52:49;9.27;;;3.10;;
44102;SDS011;29769;42.178;24.742;2023-04-25T06:55:35;4.72;;;3.08;;
44102;SDS011;29769;42.178;24.742;2023-04-25T06:58:31;18.77;;;4.05;;
44102;SDS011;29769;42.178;24.742;2023-04-25T07:01:23;6.22;;;3.60;;
44102;SDS011;29769;42.178;24.742;2023-04-25T07:04:08;3.85;;;3.25;;
44102;SDS011;29769;42.178;24.742;2023-04-25T07:06:57;4.30;;;3.90;;
44102;SDS011;29769;42.178;24.742;2023-04-25T07:09:50;7.35;;;4.47;;
44102;SDS011;29769;42.178;24.742;2023-04-25T07:12:35;14.35;;;4.57;;
44102;SDS011;29769;42.178;24.742;2023-04-25T07:15:19;8.63;;;4.03;;
44102;SDS011;29769;42.178;24.742;2023-04-25T07:18:07;11.55;;;4.10;;
44102;SDS011;29769;42.178;24.742;2023-04-25T07:20:51;10.05;;;3.67;;
44102;SDS011;29769;42.178;24.742;2023-04-25T07:23:37;7.32;;;3.90;;
44102;SDS011;29769;42.178;24.742;2023-04-25T07:26:28;22.33;;;4.57;;
44102;SDS011;29769;42.178;24.742;2023-04-25T07:29:36;5.07;;;4.68;;
44102;SDS011;29769;42.178;24.742;2023-04-25T07:32:22;11.65;;;5.35;;
44102;SDS011;29769;42.178;24.742;2023-04-25T07:35:07;5.75;;;4.93;;
44102;SDS011;29769;42.178;24.742;2023-04-25T07:37:52;5.97;;;4.00;;
44102;SDS011;29769;42.178;24.742;2023-04-25T07:40:42;4.57;;;4.05;;
44102;SDS011;29769;42.178;24.742;2023-04-25T07:43:29;5.32;;;3.80;;
44102;SDS011;29769;42.178;24.742;2023-04-25T07:46:16;11.68;;;4.30;;
44102;SDS011;29769;42.178;24.742;2023-04-25T07:49:01;5.88;;;3.60;;
44102;SDS011;29769;42.178;24.742;2023-04-25T07:51:47;5.95;;;3.42;;
44102;SDS011;29769;42.178;24.742;2023-04-25T07:54:34;60.38;;;6.43;;
44102;SDS011;29769;42.178;24.742;2023-04-25T07:57:28;25.10;;;4.90;;
44102;SDS011;29769;42.178;24.742;2023-04-25T08:00:15;12.55;;;4.40;;
44102;SDS011;29769;42.178;24.742;2023-04-25T08:03:07;8.15;;;4.28;;
44102;SDS011;29769;42.178;24.742;2023-04-25T08:05:54;7.82;;;3.28;;
44102;SDS011;29769;42.178;24.742;2023-04-25T08:08:39;16.67;;;5.82;;
44102;SDS011;29769;42.178;24.742;2023-04-25T08:11:25;12.50;;;4.18;;
44102;SDS011;29769;42.178;24.742;2023-04-25T08:14:11;22.45;;;5.97;;
44102;SDS011;29769;42.178;24.742;2023-04-25T08:16:58;7.30;;;3.13;;
44102;SDS011;29769;42.178;24.742;2023-04-25T08:19:43;7.47;;;3.45;;
44102;SDS011;29769;42.178;24.742;2023-04-25T08:22:36;10.43;;;3.53;;
44102;SDS011;29769;42.178;24.742;2023-04-25T08:25:44;5.80;;;3.30;;
44102;SDS011;29769;42.178;24.742;2023-04-25T08:28:31;10.00;;;2.85;;
44102;SDS011;29769;42.178;24.742;2023-04-25T08:31:18;3.20;;;2.90;;
44102;SDS011;29769;42.178;24.742;2023-04-25T08:34:22;8.48;;;2.97;;
44102;SDS011;29769;42.178;24.742;2023-04-25T08:37:08;6.18;;;2.67;;
44102;SDS011;29769;42.178;24.742;2023-04-25T08:40:14;12.95;;;3.47;;
44102;SDS011;29769;42.178;24.742;2023-04-25T08:43:08;10.10;;;3.10;;
44102;SDS011;29769;42.178;24.742;2023-04-25T08:46:01;10.88;;;3.50;;
44102;SDS011;29769;42.178;24.742;2023-04-25T08:49:00;20.92;;;4.72;;
44102;SDS011;29769;42.178;24.742;2023-04-25T08:51:47;9.90;;;4.13;;
44102;SDS011;29769;42.178;24.742;2023-04-25T08:54:33;9.88;;;3.85;;
44102;SDS011;29769;42.178;24.742;2023-04-25T08:57:20;10.30;;;3.60;;
44102;SDS011;29769;42.178;24.742;2023-04-25T09:00:07;10.43;;;3.72;;
44102;SDS011;29769;42.178;24.742;2023-04-25T09:02:55;8.10;;;4.20;;
44102;SDS011;29769;42.178;24.742;2023-04-25T09:05:41;4.88;;;4.32;;
44102;SDS011;29769;42.178;24.742;2023-04-25T09:08:27;10.93;;;5.50;;
44102;SDS011;29769;42.178;24.742;2023-04-25T09:11:15;14.82;;;4.80;;
44102;SDS011;29769;42.178;24.742;2023-04-25T09:20:13;13.82;;;5.40;;
44102;SDS011;29769;42.178;24.742;2023-04-25T09:23:00;6.22;;;3.92;;
44102;SDS011;29769;42.178;24.742;2023-04-25T09:25:50;7.53;;;4.00;;
44102;SDS011;29769;42.178;24.742;2023-04-25T09:28:36;4.63;;;3.83;;
44102;SDS011;29769;42.178;24.742;2023-04-25T09:31:22;17.15;;;5.13;;
44102;SDS011;29769;42.178;24.742;2023-04-25T09:34:13;8.80;;;3.78;;
44102;SDS011;29769;42.178;24.742;2023-04-25T09:37:04;5.82;;;4.10;;
44102;SDS011;29769;42.178;24.742;2023-04-25T09:40:28;5.75;;;4.28;;
44102;SDS011;29769;42.178;24.742;2023-04-25T09:43:25;10.55;;;4.70;;
44102;SDS011;29769;42.178;24.742;2023-04-25T09:46:10;5.85;;;4.22;;
44102;SDS011;29769;42.178;24.742;2023-04-25T09:48:59;5.13;;;4.55;;
44102;SDS011;29769;42.178;24.742;2023-04-25T09:51:56;7.07;;;4.47;;
44102;SDS011;29769;42.178;24.742;2023-04-25T09:54:50;8.25;;;4.65;;
44102;SDS011;29769;42.178;24.742;2023-04-25T09:57:42;5.90;;;3.83;;
44102;SDS011;29769;42.178;24.742;2023-04-25T10:00:32;5.38;;;3.83;;
44102;SDS011;29769;42.178;24.742;2023-04-25T10:03:30;4.90;;;3.33;;
44102;SDS011;29769;42.178;24.742;2023-04-25T10:06:29;6.35;;;2.90;;
44102;SDS011;29769;42.178;24.742;2023-04-25T10:09:17;3.53;;;2.60;;
44102;SDS011;29769;42.178;24.742;2023-04-25T10:12:05;7.20;;;2.97;;
44102;SDS011;29769;42.178;24.742;2023-04-25T10:14:52;12.48;;;2.83;;
44102;SDS011;29769;42.178;24.742;2023-04-25T10:17:38;2.60;;;2.40;;
44102;SDS011;29769;42.178;24.742;2023-04-25T10:20:24;8.07;;;3.17;;
44102;SDS011;29769;42.178;24.742;2023-04-25T10:23:11;5.85;;;3.30;;
44102;SDS011;29769;42.178;24.742;2023-04-25T10:25:58;5.45;;;3.10;;
44102;SDS011;29769;42.178;24.742;2023-04-25T10:28:54;3.20;;;2.85;;
44102;SDS011;29769;42.178;24.742;2023-04-25T10:31:46;12.00;;;3.83;;
44102;SDS011;29769;42.178;24.742;2023-04-25T10:34:44;13.98;;;3.60;;
44102;SDS011;29769;42.178;24.742;2023-04-25T10:37:33;3.33;;;2.17;;
44102;SDS011;29769;42.178;24.742;2023-04-25T10:40:21;5.13;;;2.28;;
44102;SDS011;29769;42.178;24.742;2023-04-25T10:49:10;3.88;;;2.90;;
44102;SDS011;29769;42.178;24.742;2023-04-25T10:52:25;4.95;;;2.85;;
44102;SDS011;29769;42.178;24.742;2023-04-25T10:55:10;4.68;;;2.88;;
44102;SDS011;29769;42.178;24.742;2023-04-25T10:57:55;2.80;;;2.50;;
44102;SDS011;29769;42.178;24.742;2023-04-25T11:00:40;3.15;;;2.88;;
44102;SDS011;29769;42.178;24.742;2023-04-25T11:03:25;6.90;;;2.83;;
44102;SDS011;29769;42.178;24.742;2023-04-25T11:09:12;6.13;;;3.47;;
44102;SDS011;29769;42.178;24.742;2023-04-25T11:11:57;8.23;;;3.25;;
44102;SDS011;29769;42.178;24.742;2023-04-25T11:14:44;7.20;;;2.85;;
44102;SDS011;29769;42.178;24.742;2023-04-25T11:17:29;2.25;;;2.03;;
44102;SDS011;29769;42.178;24.742;2023-04-25T11:20:14;4.43;;;1.27;;
44102;SDS011;29769;42.178;24.742;2023-04-25T11:22:59;1.83;;;1.73;;
44102;SDS011;29769;42.178;24.742;2023-04-25T11:25:44;7.10;;;2.08;;
44102;SDS011;29769;42.178;24.742;2023-04-25T11:28:29;4.63;;;2.20;;
44102;SDS011;29769;42.178;24.742;2023-04-25T11:31:15;3.75;;;3.00;;
44102;SDS011;29769;42.178;24.742;2023-04-25T11:33:59;5.05;;;2.42;;
44102;SDS011;29769;42.178;24.742;2023-04-25T11:36:45;2.50;;;2.30;;
44102;SDS011;29769;42.178;24.742;2023-04-25T11:39:30;14.23;;;4.00;;
44102;SDS011;29769;42.178;24.742;2023-04-25T11:42:15;2.50;;;2.30;;
44102;SDS011;29769;42.178;24.742;2023-04-25T11:45:00;7.22;;;3.45;;
44102;SDS011;29769;42.178;24.742;2023-04-25T11:47:45;5.28;;;3.20;;
44102;SDS011;29769;42.178;24.742;2023-04-25T11:50:30;5.35;;;2.35;;
44102;SDS011;29769;42.178;24.742;2023-04-25T11:53:17;4.30;;;2.85;;
44102;SDS011;29769;42.178;24.742;2023-04-25T11:56:02;4.40;;;2.70;;
44102;SDS011;29769;42.178;24.742;2023-04-25T12:01:48;3.67;;;2.70;;
44102;SDS011;29769;42.178;24.742;2023-04-25T12:04:33;3.38;;;2.60;;
44102;SDS011;29769;42.178;24.742;2023-04-25T12:07:18;5.00;;;2.55;;
44102;SDS011;29769;42.178;24.742;2023-04-25T12:10:13;4.88;;;2.72;;
44102;SDS011;29769;42.178;24.742;2023-04-25T12:12:59;2.30;;;2.10;;
44102;SDS011;29769;42.178;24.742;2023-04-25T12:15:44;2.20;;;2.00;;
44102;SDS011;29769;42.178;24.742;2023-04-25T12:18:29;2.45;;;2.25;;
44102;SDS011;29769;42.178;24.742;2023-04-25T12:21:14;2.58;;;2.38;;
44102;SDS011;29769;42.178;24.742;2023-04-25T12:24:22;3.40;;;2.20;;
44102;SDS011;29769;42.178;24.742;2023-04-25T12:27:10;2.33;;;1.98;;
44102;SDS011;29769;42.178;24.742;2023-04-25T12:29:55;4.95;;;2.30;;
44102;SDS011;29769;42.178;24.742;2023-04-25T12:32:40;5.03;;;2.20;;
44102;SDS011;29769;42.178;24.742;2023-04-25T12:35:25;6.70;;;2.65;;
44102;SDS011;29769;42.178;24.742;2023-04-25T12:38:10;2.30;;;2.10;;
44102;SDS011;29769;42.178;24.742;2023-04-25T12:40:55;28.02;;;5.50;;
44102;SDS011;29769;42.178;24.742;2023-04-25T12:43:42;3.35;;;2.00;;
44102;SDS011;29769;42.178;24.742;2023-04-25T12:46:27;2.05;;;1.85;;
44102;SDS011;29769;42.178;24.742;2023-04-25T12:49:12;17.35;;;2.30;;
44102;SDS011;29769;42.178;24.742;2023-04-25T12:51:57;10.98;;;2.90;;
44102;SDS011;29769;42.178;24.742;2023-04-25T12:54:42;8.13;;;2.85;;
44102;SDS011;29769;42.178;24.742;2023-04-25T12:57:27;5.07;;;2.10;;
44102;SDS011;29769;42.178;24.742;2023-04-25T13:00:12;9.98;;;2.88;;
44102;SDS011;29769;42.178;24.742;2023-04-25T13:02:59;30.42;;;4.57;;
44102;SDS011;29769;42.178;24.742;2023-04-25T13:05:44;4.38;;;2.45;;
44102;SDS011;29769;42.178;24.742;2023-04-25T13:08:29;11.23;;;3.65;;
44102;SDS011;29769;42.178;24.742;2023-04-25T13:11:14;10.35;;;2.47;;
44102;SDS011;29769;42.178;24.742;2023-04-25T13:13:59;5.25;;;1.88;;
44102;SDS011;29769;42.178;24.742;2023-04-25T13:16:44;2.15;;;1.98;;
44102;SDS011;29769;42.178;24.742;2023-04-25T13:19:29;4.47;;;2.22;;
44102;SDS011;29769;42.178;24.742;2023-04-25T13:22:15;5.80;;;2.00;;
44102;SDS011;29769;42.178;24.742;2023-04-25T13:25:01;4.82;;;1.75;;
44102;SDS011;29769;42.178;24.742;2023-04-25T13:30:30;9.50;;;2.80;;
44102;SDS011;29769;42.178;24.742;2023-04-25T13:33:15;3.28;;;1.60;;
44102;SDS011;29769;42.178;24.742;2023-04-25T13:36:00;3.30;;;2.03;;
44102;SDS011;29769;42.178;24.742;2023-04-25T13:41:33;5.30;;;1.60;;
44102;SDS011;29769;42.178;24.742;2023-04-25T13:47:02;4.75;;;1.60;;
44102;SDS011;29769;42.178;24.742;2023-04-25T13:49:47;6.55;;;2.08;;
44102;SDS011;29769;42.178;24.742;2023-04-25T13:52:32;16.90;;;2.70;;
44102;SDS011;29769;42.178;24.742;2023-04-25T13:55:17;6.22;;;1.65;;
44102;SDS011;29769;42.178;24.742;2023-04-25T13:58:02;14.60;;;2.50;;
44102;SDS011;29769;42.178;24.742;2023-04-25T14:00:51;6.68;;;1.50;;
44102;SDS011;29769;42.178;24.742;2023-04-25T14:03:36;0.80;;;0.80;;
44102;SDS011;29769;42.178;24.742;2023-04-25T14:06:21;2.05;;;0.80;;
44102;SDS011;29769;42.178;24.742;2023-04-25T14:09:08;3.92;;;1.00;;
44102;SDS011;29769;42.178;24.742;2023-04-25T14:11:54;3.33;;;1.30;;
44102;SDS011;29769;42.178;24.742;2023-04-25T14:14:40;1.10;;;1.00;;
44102;SDS011;29769;42.178;24.742;2023-04-25T14:17:24;2.05;;;1.45;;
44102;SDS011;29769;42.178;24.742;2023-04-25T14:20:09;2.80;;;1.40;;
44102;SDS011;29769;42.178;24.742;2023-04-25T14:22:56;2.40;;;1.10;;
44102;SDS011;29769;42.178;24.742;2023-04-25T14:25:42;2.65;;;1.10;;
44102;SDS011;29769;42.178;24.742;2023-04-25T14:28:27;1.55;;;1.17;;
44102;SDS011;29769;42.178;24.742;2023-04-25T14:31:12;2.35;;;1.02;;
44102;SDS011;29769;42.178;24.742;2023-04-25T14:33:57;0.95;;;0.90;;
44102;SDS011;29769;42.178;24.742;2023-04-25T14:36:42;6.00;;;1.05;;
44102;SDS011;29769;42.178;24.742;2023-04-25T14:39:27;3.47;;;1.00;;
44102;SDS011;29769;42.178;24.742;2023-04-25T14:42:12;4.88;;;1.30;;
44102;SDS011;29769;42.178;24.742;2023-04-25T14:47:41;1.67;;;1.10;;
44102;SDS011;29769;42.178;24.742;2023-04-25T14:50:26;0.82;;;0.80;;
44102;SDS011;29769;42.178;24.742;2023-04-25T14:53:11;2.00;;;1.10;;
44102;SDS011;29769;42.178;24.742;2023-04-25T14:55:57;1.17;;;1.08;;
44102;SDS011;29769;42.178;24.742;2023-04-25T14:58:41;3.00;;;1.20;;
44102;SDS011;29769;42.178;24.742;2023-04-25T15:01:26;1.90;;;0.80;;
44102;SDS011;29769;42.178;24.742;2023-04-25T15:04:11;2.83;;;0.77;;
44102;SDS011;29769;42.178;24.742;2023-04-25T15:06:57;1.33;;;0.93;;
44102;SDS011;29769;42.178;24.742;2023-04-25T15:09:42;1.10;;;1.00;;
44102;SDS011;29769;42.178;24.742;2023-04-25T15:12:26;3.80;;;1.10;;
44102;SDS011;29769;42.178;24.742;2023-04-25T15:15:13;2.85;;;1.20;;
44102;SDS011;29769;42.178;24.742;2023-04-25T15:17:58;3.70;;;0.70;;
44102;SDS011;29769;42.178;24.742;2023-04-25T15:20:43;6.40;;;1.63;;
44102;SDS011;29769;42.178;24.742;2023-04-25T15:26:12;2.15;;;1.10;;
44102;SDS011;29769;42.178;24.742;2023-04-25T15:28:57;3.85;;;1.20;;
44102;SDS011;29769;42.178;24.742;2023-04-25T15:31:41;2.53;;;0.90;;
44102;SDS011;29769;42.178;24.742;2023-04-25T15:34:26;1.15;;;0.80;;
44102;SDS011;29769;42.178;24.742;2023-04-25T15:37:11;1.90;;;0.70;;
44102;SDS011;29769;42.178;24.742;2023-04-25T15:40:03;1.08;;;0.82;;
44102;SDS011;29769;42.178;24.742;2023-04-25T15:42:53;1.27;;;0.68;;
44102;SDS011;29769;42.178;24.742;2023-04-25T15:45:38;1.75;;;0.63;;
44102;SDS011;29769;42.178;24.742;2023-04-25T15:48:23;2.92;;;0.95;;
44102;SDS011;29769;42.178;24.742;2023-04-25T15:51:08;1.70;;;0.77;;
44102;SDS011;29769;42.178;24.742;2023-04-25T15:53:54;1.13;;;0.70;;
44102;SDS011;29769;42.178;24.742;2023-04-25T15:56:39;3.40;;;0.60;;
44102;SDS011;29769;42.178;24.742;2023-04-25T16:02:08;0.90;;;0.85;;
44102;SDS011;29769;42.178;24.742;2023-04-25T16:04:53;3.13;;;0.88;;
44102;SDS011;29769;42.178;24.742;2023-04-25T16:07:38;1.10;;;1.00;;
44102;SDS011;29769;42.178;24.742;2023-04-25T16:10:25;0.60;;;0.60;;
44102;SDS011;29769;42.178;24.742;2023-04-25T16:13:10;0.82;;;0.82;;
44102;SDS011;29769;42.178;24.742;2023-04-25T16:15:55;0.70;;;0.70;;
44102;SDS011;29769;42.178;24.742;2023-04-25T16:21:24;0.70;;;0.55;;
44102;SDS011;29769;42.178;24.742;2023-04-25T16:24:10;0.60;;;0.60;;
44102;SDS011;29769;42.178;24.742;2023-04-25T16:26:55;1.55;;;0.60;;
44102;SDS011;29769;42.178;24.742;2023-04-25T16:29:40;1.05;;;0.63;;
44102;SDS011;29769;42.178;24.742;2023-04-25T16:32:26;1.10;;;0.82;;
44102;SDS011;29769;42.178;24.742;2023-04-25T16:35:11;2.13;;;0.57;;
44102;SDS011;29769;42.178;24.742;2023-04-25T16:37:55;0.40;;;0.40;;
44102;SDS011;29769;42.178;24.742;2023-04-25T16:43:25;0.60;;;0.50;;
44102;SDS011;29769;42.178;24.742;2023-04-25T16:48:54;1.00;;;0.70;;
44102;SDS011;29769;42.178;24.742;2023-04-25T16:51:39;0.70;;;0.70;;
44102;SDS011;29769;42.178;24.742;2023-04-25T16:57:09;1.20;;;1.10;;
44102;SDS011;29769;42.178;24.742;2023-04-25T16:59:54;1.65;;;1.10;;
44102;SDS011;29769;42.178;24.742;2023-04-25T17:02:40;2.33;;;1.27;;
44102;SDS011;29769;42.178;24.742;2023-04-25T17:08:10;1.38;;;0.98;;
44102;SDS011;29769;42.178;24.742;2023-04-25T17:13:40;3.33;;;1.73;;
44102;SDS011;29769;42.178;24.742;2023-04-25T17:16:34;2.03;;;1.83;;
44102;SDS011;29769;42.178;24.742;2023-04-25T17:19:19;4.05;;;2.50;;
44102;SDS011;29769;42.178;24.742;2023-04-25T17:22:04;5.80;;;2.55;;
44102;SDS011;29769;42.178;24.742;2023-04-25T17:24:50;6.03;;;2.55;;
44102;SDS011;29769;42.178;24.742;2023-04-25T17:27:35;2.38;;;2.17;;
44102;SDS011;29769;42.178;24.742;2023-04-25T17:30:20;1.80;;;1.70;;
44102;SDS011;29769;42.178;24.742;2023-04-25T17:33:05;1.63;;;1.52;;
44102;SDS011;29769;42.178;24.742;2023-04-25T17:35:50;2.28;;;2.03;;
44102;SDS011;29769;42.178;24.742;2023-04-25T17:38:36;2.08;;;1.88;;
44102;SDS011;29769;42.178;24.742;2023-04-25T17:41:22;8.77;;;2.00;;
44102;SDS011;29769;42.178;24.742;2023-04-25T17:46:51;3.03;;;2.13;;
44102;SDS011;29769;42.178;24.742;2023-04-25T17:49:37;2.63;;;1.95;;
44102;SDS011;29769;42.178;24.742;2023-04-25T17:52:22;9.20;;;2.25;;
44102;SDS011;29769;42.178;24.742;2023-04-25T17:55:08;2.22;;;2.03;;
44102;SDS011;29769;42.178;24.742;2023-04-25T17:57:52;4.65;;;2.05;;
44102;SDS011;29769;42.178;24.742;2023-04-25T18:03:22;5.20;;;1.87;;
44102;SDS011;29769;42.178;24.742;2023-04-25T18:08:52;5.15;;;1.83;;
44102;SDS011;29769;42.178;24.742;2023-04-25T18:11:38;2.80;;;2.60;;
44102;SDS011;29769;42.178;24.742;2023-04-25T18:17:08;4.30;;;2.50;;
44102;SDS011;29769;42.178;24.742;2023-04-25T18:19:53;3.60;;;2.65;;
44102;SDS011;29769;42.178;24.742;2023-04-25T18:22:39;2.63;;;2.42;;
44102;SDS011;29769;42.178;24.742;2023-04-25T18:28:08;5.47;;;2.60;;
44102;SDS011;29769;42.178;24.742;2023-04-25T18:30:53;3.88;;;2.72;;
44102;SDS011;29769;42.178;24.742;2023-04-25T18:33:38;2.40;;;2.17;;
44102;SDS011;29769;42.178;24.742;2023-04-25T18:39:07;3.00;;;2.35;;
44102;SDS011;29769;42.178;24.742;2023-04-25T18:41:53;4.05;;;2.35;;